sensor_id;sensor_type;location;lat;lon;timestamp;pressure;altitude;pressure_sealevel;temperature;humidity
61359;BME280;47228;46.762;23.598;2023-03-09T00:01:30;95971.55;;;7.46;67.28
61359;BME280;47228;46.762;23.598;2023-03-09T00:03:59;95961.98;;;7.46;67.54
61359;BME280;47228;46.762;23.598;2023-03-09T00:06:29;95962.00;;;7.47;67.68
61359;BME280;47228;46.762;23.598;2023-03-09T00:08:57;95968.75;;;7.46;67.56
61359;BME280;47228;46.762;23.598;2023-03-09T00:11:25;95969.61;;;7.45;67.47
61359;BME280;47228;46.762;23.598;2023-03-09T00:13:53;95967.55;;;7.43;67.57
61359;BME280;47228;46.762;23.598;2023-03-09T00:16:24;95961.20;;;7.41;67.65
61359;BME280;47228;46.762;23.598;2023-03-09T00:18:54;95959.52;;;7.38;67.52
61359;BME280;47228;46.762;23.598;2023-03-09T00:21:25;95961.09;;;7.35;67.44
61359;BME280;47228;46.762;23.598;2023-03-09T00:24:26;95954.77;;;7.34;67.70
61359;BME280;47228;46.762;23.598;2023-03-09T00:26:57;95954.48;;;7.33;67.50
61359;BME280;47228;46.762;23.598;2023-03-09T00:29:27;95953.73;;;7.34;67.50
61359;BME280;47228;46.762;23.598;2023-03-09T00:31:56;95949.05;;;7.36;67.52
61359;BME280;47228;46.762;23.598;2023-03-09T00:34:25;95941.35;;;7.38;67.82
61359;BME280;47228;46.762;23.598;2023-03-09T00:36:53;95940.15;;;7.40;67.64
61359;BME280;47228;46.762;23.598;2023-03-09T00:39:21;95936.21;;;7.43;67.69
61359;BME280;47228;46.762;23.598;2023-03-09T00:41:49;95939.81;;;7.45;67.60
61359;BME280;47228;46.762;23.598;2023-03-09T00:44:17;95936.34;;;7.47;67.59
61359;BME280;47228;46.762;23.598;2023-03-09T00:46:45;95923.00;;;7.48;67.45
61359;BME280;47228;46.762;23.598;2023-03-09T00:49:14;95915.34;;;7.48;67.21
61359;BME280;47228;46.762;23.598;2023-03-09T00:51:42;95913.31;;;7.46;67.16
61359;BME280;47228;46.762;23.598;2023-03-09T00:54:12;95913.23;;;7.43;66.82
61359;BME280;47228;46.762;23.598;2023-03-09T00:56:41;95907.84;;;7.41;67.06
61359;BME280;47228;46.762;23.598;2023-03-09T00:59:12;95902.96;;;7.41;66.79
61359;BME280;47228;46.762;23.598;2023-03-09T01:01:40;95902.80;;;7.41;67.01
61359;BME280;47228;46.762;23.598;2023-03-09T01:04:08;95900.17;;;7.39;66.85
61359;BME280;47228;46.762;23.598;2023-03-09T01:06:37;95902.63;;;7.38;66.86
61359;BME280;47228;46.762;23.598;2023-03-09T01:09:05;95909.54;;;7.37;67.19
61359;BME280;47228;46.762;23.598;2023-03-09T01:11:33;95906.98;;;7.37;67.36
61359;BME280;47228;46.762;23.598;2023-03-09T01:14:01;95908.03;;;7.37;67.30
61359;BME280;47228;46.762;23.598;2023-03-09T01:16:29;95910.33;;;7.36;67.28
61359;BME280;47228;46.762;23.598;2023-03-09T01:18:57;95902.70;;;7.35;67.67
61359;BME280;47228;46.762;23.598;2023-03-09T01:21:25;95900.61;;;7.36;67.81
61359;BME280;47228;46.762;23.598;2023-03-09T01:23:53;95903.22;;;7.35;67.45
61359;BME280;47228;46.762;23.598;2023-03-09T01:26:21;95904.54;;;7.33;67.21
61359;BME280;47228;46.762;23.598;2023-03-09T01:28:49;95894.65;;;7.31;67.34
61359;BME280;47228;46.762;23.598;2023-03-09T01:31:17;95887.23;;;7.29;67.25
61359;BME280;47228;46.762;23.598;2023-03-09T01:33:47;95876.46;;;7.25;67.17
61359;BME280;47228;46.762;23.598;2023-03-09T01:36:18;95876.65;;;7.22;67.03
61359;BME280;47228;46.762;23.598;2023-03-09T01:38:46;95872.13;;;7.19;67.16
61359;BME280;47228;46.762;23.598;2023-03-09T01:41:17;95870.98;;;7.17;67.22
61359;BME280;47228;46.762;23.598;2023-03-09T01:43:48;95869.87;;;7.14;67.38
61359;BME280;47228;46.762;23.598;2023-03-09T01:49:08;95866.92;;;7.04;67.55
61359;BME280;47228;46.762;23.598;2023-03-09T01:56:58;95868.94;;;6.91;68.23
61359;BME280;47228;46.762;23.598;2023-03-09T01:59:28;95866.83;;;6.90;68.41
61359;BME280;47228;46.762;23.598;2023-03-09T02:01:59;95870.11;;;6.92;68.53
61359;BME280;47228;46.762;23.598;2023-03-09T02:04:38;95861.88;;;6.94;68.10
61359;BME280;47228;46.762;23.598;2023-03-09T02:07:12;95854.98;;;6.97;67.68
61359;BME280;47228;46.762;23.598;2023-03-09T02:09:46;95847.10;;;7.02;67.57
61359;BME280;47228;46.762;23.598;2023-03-09T02:12:18;95851.48;;;7.08;67.21
61359;BME280;47228;46.762;23.598;2023-03-09T02:14:47;95846.29;;;7.16;67.12
61359;BME280;47228;46.762;23.598;2023-03-09T02:17:15;95843.95;;;7.22;66.75
61359;BME280;47228;46.762;23.598;2023-03-09T02:19:58;95835.02;;;7.29;66.46
61359;BME280;47228;46.762;23.598;2023-03-09T02:22:37;95833.02;;;7.37;66.14
61359;BME280;47228;46.762;23.598;2023-03-09T02:27:41;95838.15;;;7.47;65.92
61359;BME280;47228;46.762;23.598;2023-03-09T02:30:10;95836.38;;;7.49;65.68
61359;BME280;47228;46.762;23.598;2023-03-09T02:32:38;95837.86;;;7.52;65.57
61359;BME280;47228;46.762;23.598;2023-03-09T02:35:06;95837.23;;;7.53;65.46
61359;BME280;47228;46.762;23.598;2023-03-09T02:37:39;95836.48;;;7.55;65.38
61359;BME280;47228;46.762;23.598;2023-03-09T02:40:11;95832.82;;;7.56;65.28
61359;BME280;47228;46.762;23.598;2023-03-09T02:42:42;95836.02;;;7.58;65.27
61359;BME280;47228;46.762;23.598;2023-03-09T02:45:12;95837.41;;;7.60;65.24
61359;BME280;47228;46.762;23.598;2023-03-09T02:47:42;95836.70;;;7.61;65.02
61359;BME280;47228;46.762;23.598;2023-03-09T02:50:10;95832.42;;;7.61;65.02
61359;BME280;47228;46.762;23.598;2023-03-09T02:52:38;95836.13;;;7.61;64.83
61359;BME280;47228;46.762;23.598;2023-03-09T02:55:06;95842.21;;;7.62;64.99
61359;BME280;47228;46.762;23.598;2023-03-09T02:57:35;95846.48;;;7.63;64.83
61359;BME280;47228;46.762;23.598;2023-03-09T03:00:05;95846.95;;;7.63;64.74
61359;BME280;47228;46.762;23.598;2023-03-09T03:02:39;95855.88;;;7.61;65.16
61359;BME280;47228;46.762;23.598;2023-03-09T03:05:07;95854.33;;;7.58;65.58
61359;BME280;47228;46.762;23.598;2023-03-09T03:07:36;95863.96;;;7.55;65.85
61359;BME280;47228;46.762;23.598;2023-03-09T03:10:04;95870.80;;;7.50;66.13
61359;BME280;47228;46.762;23.598;2023-03-09T03:12:33;95872.90;;;7.44;66.13
61359;BME280;47228;46.762;23.598;2023-03-09T03:15:01;95871.01;;;7.35;66.19
61359;BME280;47228;46.762;23.598;2023-03-09T03:17:29;95874.70;;;7.27;66.39
61359;BME280;47228;46.762;23.598;2023-03-09T03:19:57;95868.31;;;7.23;66.79
61359;BME280;47228;46.762;23.598;2023-03-09T03:22:24;95869.80;;;7.21;67.09
61359;BME280;47228;46.762;23.598;2023-03-09T03:24:52;95871.70;;;7.21;67.22
61359;BME280;47228;46.762;23.598;2023-03-09T03:27:20;95870.02;;;7.22;67.12
61359;BME280;47228;46.762;23.598;2023-03-09T03:29:51;95865.15;;;7.23;67.27
61359;BME280;47228;46.762;23.598;2023-03-09T03:32:19;95865.46;;;7.24;67.07
61359;BME280;47228;46.762;23.598;2023-03-09T03:34:47;95862.99;;;7.27;66.99
61359;BME280;47228;46.762;23.598;2023-03-09T03:37:15;95865.68;;;7.30;67.01
61359;BME280;47228;46.762;23.598;2023-03-09T03:39:42;95865.97;;;7.34;66.78
61359;BME280;47228;46.762;23.598;2023-03-09T03:42:10;95863.39;;;7.40;66.51
61359;BME280;47228;46.762;23.598;2023-03-09T03:44:38;95869.38;;;7.46;66.42
61359;BME280;47228;46.762;23.598;2023-03-09T03:47:06;95875.48;;;7.53;66.43
61359;BME280;47228;46.762;23.598;2023-03-09T03:49:34;95882.15;;;7.53;66.44
61359;BME280;47228;46.762;23.598;2023-03-09T03:52:02;95878.25;;;7.52;66.68
61359;BME280;47228;46.762;23.598;2023-03-09T03:54:30;95870.77;;;7.52;67.12
61359;BME280;47228;46.762;23.598;2023-03-09T03:56:58;95872.29;;;7.51;66.90
61359;BME280;47228;46.762;23.598;2023-03-09T03:59:27;95867.91;;;7.47;66.77
61359;BME280;47228;46.762;23.598;2023-03-09T04:01:55;95864.92;;;7.44;66.97
61359;BME280;47228;46.762;23.598;2023-03-09T04:04:23;95871.06;;;7.44;67.17
61359;BME280;47228;46.762;23.598;2023-03-09T04:06:51;95873.35;;;7.43;67.24
61359;BME280;47228;46.762;23.598;2023-03-09T04:09:19;95864.38;;;7.42;67.28
61359;BME280;47228;46.762;23.598;2023-03-09T04:11:46;95856.01;;;7.43;67.19
61359;BME280;47228;46.762;23.598;2023-03-09T04:14:14;95857.41;;;7.44;67.46
61359;BME280;47228;46.762;23.598;2023-03-09T04:16:43;95860.33;;;7.44;67.36
61359;BME280;47228;46.762;23.598;2023-03-09T04:19:10;95859.13;;;7.43;67.13
61359;BME280;47228;46.762;23.598;2023-03-09T04:21:38;95853.02;;;7.42;67.14
61359;BME280;47228;46.762;23.598;2023-03-09T04:24:06;95849.01;;;7.40;67.13
61359;BME280;47228;46.762;23.598;2023-03-09T04:26:37;95844.11;;;7.39;67.19
61359;BME280;47228;46.762;23.598;2023-03-09T04:29:05;95842.02;;;7.33;67.13
61359;BME280;47228;46.762;23.598;2023-03-09T04:31:33;95844.29;;;7.28;67.33
61359;BME280;47228;46.762;23.598;2023-03-09T04:34:01;95844.16;;;7.26;67.50
61359;BME280;47228;46.762;23.598;2023-03-09T04:36:31;95852.23;;;7.22;67.55
61359;BME280;47228;46.762;23.598;2023-03-09T04:39:03;95846.27;;;7.18;67.61
61359;BME280;47228;46.762;23.598;2023-03-09T04:41:33;95844.72;;;7.14;67.80
61359;BME280;47228;46.762;23.598;2023-03-09T04:44:01;95846.10;;;7.10;68.24
61359;BME280;47228;46.762;23.598;2023-03-09T04:46:30;95840.42;;;7.08;68.25
61359;BME280;47228;46.762;23.598;2023-03-09T04:49:00;95837.59;;;7.07;68.64
61359;BME280;47228;46.762;23.598;2023-03-09T04:51:29;95839.89;;;7.06;68.64
61359;BME280;47228;46.762;23.598;2023-03-09T04:53:57;95838.10;;;7.03;68.78
61359;BME280;47228;46.762;23.598;2023-03-09T04:56:25;95837.30;;;7.01;69.01
61359;BME280;47228;46.762;23.598;2023-03-09T04:58:53;95831.20;;;6.96;69.17
61359;BME280;47228;46.762;23.598;2023-03-09T05:01:23;95833.38;;;6.93;69.30
61359;BME280;47228;46.762;23.598;2023-03-09T05:03:51;95838.52;;;6.90;69.39
61359;BME280;47228;46.762;23.598;2023-03-09T05:06:19;95841.42;;;6.89;69.50
61359;BME280;47228;46.762;23.598;2023-03-09T05:08:47;95846.35;;;6.87;69.79
61359;BME280;47228;46.762;23.598;2023-03-09T05:11:15;95849.98;;;6.85;69.69
61359;BME280;47228;46.762;23.598;2023-03-09T05:13:42;95847.67;;;6.82;70.07
61359;BME280;47228;46.762;23.598;2023-03-09T05:16:10;95851.05;;;6.82;70.36
61359;BME280;47228;46.762;23.598;2023-03-09T05:18:38;95850.98;;;6.83;70.19
61359;BME280;47228;46.762;23.598;2023-03-09T05:21:07;95839.84;;;6.84;70.19
61359;BME280;47228;46.762;23.598;2023-03-09T05:23:36;95838.60;;;6.87;70.12
61359;BME280;47228;46.762;23.598;2023-03-09T05:26:04;95845.35;;;6.90;70.18
61359;BME280;47228;46.762;23.598;2023-03-09T05:28:35;95847.33;;;6.94;70.09
61359;BME280;47228;46.762;23.598;2023-03-09T05:31:08;95851.84;;;6.98;70.08
61359;BME280;47228;46.762;23.598;2023-03-09T05:33:37;95844.55;;;7.05;70.29
61359;BME280;47228;46.762;23.598;2023-03-09T05:36:17;95838.11;;;7.12;70.30
61359;BME280;47228;46.762;23.598;2023-03-09T05:38:48;95854.92;;;7.18;69.95
61359;BME280;47228;46.762;23.598;2023-03-09T05:41:18;95862.09;;;7.23;70.08
61359;BME280;47228;46.762;23.598;2023-03-09T05:43:46;95850.88;;;7.28;69.60
61359;BME280;47228;46.762;23.598;2023-03-09T05:46:15;95845.42;;;7.31;69.04
61359;BME280;47228;46.762;23.598;2023-03-09T05:48:46;95842.77;;;7.35;68.94
61359;BME280;47228;46.762;23.598;2023-03-09T05:51:14;95846.48;;;7.39;69.04
61359;BME280;47228;46.762;23.598;2023-03-09T05:53:43;95846.74;;;7.42;69.12
61359;BME280;47228;46.762;23.598;2023-03-09T05:56:11;95845.85;;;7.46;68.98
61359;BME280;47228;46.762;23.598;2023-03-09T05:58:39;95847.77;;;7.50;69.07
61359;BME280;47228;46.762;23.598;2023-03-09T06:01:22;95838.81;;;7.54;68.87
61359;BME280;47228;46.762;23.598;2023-03-09T06:03:51;95836.91;;;7.57;68.77
61359;BME280;47228;46.762;23.598;2023-03-09T06:06:19;95836.70;;;7.61;68.86
61359;BME280;47228;46.762;23.598;2023-03-09T06:08:47;95838.46;;;7.66;69.12
61359;BME280;47228;46.762;23.598;2023-03-09T06:11:15;95844.33;;;7.72;68.95
61359;BME280;47228;46.762;23.598;2023-03-09T06:13:43;95846.98;;;7.73;68.88
61359;BME280;47228;46.762;23.598;2023-03-09T06:16:14;95846.88;;;7.74;68.91
61359;BME280;47228;46.762;23.598;2023-03-09T06:18:43;95840.38;;;7.76;68.66
61359;BME280;47228;46.762;23.598;2023-03-09T06:21:12;95840.77;;;7.78;68.55
61359;BME280;47228;46.762;23.598;2023-03-09T06:23:40;95844.88;;;7.80;68.88
61359;BME280;47228;46.762;23.598;2023-03-09T06:26:10;95840.11;;;7.84;69.09
61359;BME280;47228;46.762;23.598;2023-03-09T06:28:39;95834.92;;;7.92;69.03
61359;BME280;47228;46.762;23.598;2023-03-09T06:31:09;95834.91;;;7.99;69.07
61359;BME280;47228;46.762;23.598;2023-03-09T06:33:41;95834.42;;;8.09;68.97
61359;BME280;47228;46.762;23.598;2023-03-09T06:36:11;95834.24;;;8.18;69.17
61359;BME280;47228;46.762;23.598;2023-03-09T06:38:40;95836.46;;;8.29;68.80
61359;BME280;47228;46.762;23.598;2023-03-09T06:41:08;95837.73;;;8.40;68.38
61359;BME280;47228;46.762;23.598;2023-03-09T06:43:36;95840.91;;;8.51;67.70
61359;BME280;47228;46.762;23.598;2023-03-09T06:46:04;95845.29;;;8.58;67.51
61359;BME280;47228;46.762;23.598;2023-03-09T06:48:32;95848.48;;;8.63;67.24
61359;BME280;47228;46.762;23.598;2023-03-09T06:51:00;95840.82;;;8.66;67.09
61359;BME280;47228;46.762;23.598;2023-03-09T06:53:28;95831.47;;;8.70;66.97
61359;BME280;47228;46.762;23.598;2023-03-09T06:55:58;95828.66;;;8.75;67.04
61359;BME280;47228;46.762;23.598;2023-03-09T06:58:27;95830.34;;;8.82;66.91
61359;BME280;47228;46.762;23.598;2023-03-09T07:00:55;95831.33;;;8.88;66.71
61359;BME280;47228;46.762;23.598;2023-03-09T07:03:23;95828.30;;;8.95;67.10
61359;BME280;47228;46.762;23.598;2023-03-09T07:05:52;95824.92;;;9.03;67.00
61359;BME280;47228;46.762;23.598;2023-03-09T07:08:20;95822.08;;;9.13;66.70
61359;BME280;47228;46.762;23.598;2023-03-09T07:10:48;95827.30;;;9.24;66.58
61359;BME280;47228;46.762;23.598;2023-03-09T07:13:16;95832.14;;;9.36;66.10
61359;BME280;47228;46.762;23.598;2023-03-09T07:15:44;95832.95;;;9.50;65.71
61359;BME280;47228;46.762;23.598;2023-03-09T07:18:13;95834.52;;;9.62;65.10
61359;BME280;47228;46.762;23.598;2023-03-09T07:20:41;95830.91;;;9.67;64.39
61359;BME280;47228;46.762;23.598;2023-03-09T07:23:10;95829.48;;;9.73;64.30
61359;BME280;47228;46.762;23.598;2023-03-09T07:25:38;95831.08;;;9.81;64.17
61359;BME280;47228;46.762;23.598;2023-03-09T07:28:07;95832.92;;;9.92;64.17
61359;BME280;47228;46.762;23.598;2023-03-09T07:30:37;95822.27;;;10.02;64.29
61359;BME280;47228;46.762;23.598;2023-03-09T07:33:06;95804.12;;;10.10;64.28
61359;BME280;47228;46.762;23.598;2023-03-09T07:35:38;95791.73;;;10.18;63.95
61359;BME280;47228;46.762;23.598;2023-03-09T07:38:06;95795.48;;;10.27;63.53
61359;BME280;47228;46.762;23.598;2023-03-09T07:40:34;95795.45;;;10.40;63.38
61359;BME280;47228;46.762;23.598;2023-03-09T07:43:03;95801.09;;;10.57;63.56
61359;BME280;47228;46.762;23.598;2023-03-09T07:45:31;95806.07;;;10.73;62.64
61359;BME280;47228;46.762;23.598;2023-03-09T07:47:59;95802.23;;;10.84;62.43
61359;BME280;47228;46.762;23.598;2023-03-09T07:50:27;95798.64;;;10.91;61.90
61359;BME280;47228;46.762;23.598;2023-03-09T07:52:55;95805.13;;;10.96;61.77
61359;BME280;47228;46.762;23.598;2023-03-09T07:55:23;95810.05;;;10.99;61.66
61359;BME280;47228;46.762;23.598;2023-03-09T07:57:51;95816.52;;;11.02;61.70
61359;BME280;47228;46.762;23.598;2023-03-09T08:00:19;95818.42;;;11.05;61.99
61359;BME280;47228;46.762;23.598;2023-03-09T08:02:51;95820.30;;;11.10;62.07
61359;BME280;47228;46.762;23.598;2023-03-09T08:05:19;95816.80;;;11.14;61.78
61359;BME280;47228;46.762;23.598;2023-03-09T08:07:48;95809.10;;;11.20;61.53
61359;BME280;47228;46.762;23.598;2023-03-09T08:10:18;95805.23;;;11.24;61.66
61359;BME280;47228;46.762;23.598;2023-03-09T08:12:47;95803.20;;;11.27;61.13
61359;BME280;47228;46.762;23.598;2023-03-09T08:15:17;95807.42;;;11.29;61.14
61359;BME280;47228;46.762;23.598;2023-03-09T08:17:46;95811.61;;;11.32;61.28
61359;BME280;47228;46.762;23.598;2023-03-09T08:20:15;95812.98;;;11.35;61.24
61359;BME280;47228;46.762;23.598;2023-03-09T08:22:43;95815.36;;;11.38;61.39
61359;BME280;47228;46.762;23.598;2023-03-09T08:25:12;95814.89;;;11.42;61.38
61359;BME280;47228;46.762;23.598;2023-03-09T08:27:42;95809.02;;;11.46;61.49
61359;BME280;47228;46.762;23.598;2023-03-09T08:30:11;95807.20;;;11.48;61.21
61359;BME280;47228;46.762;23.598;2023-03-09T08:32:40;95803.59;;;11.50;60.85
61359;BME280;47228;46.762;23.598;2023-03-09T08:35:08;95804.55;;;11.50;60.86
61359;BME280;47228;46.762;23.598;2023-03-09T08:37:36;95795.99;;;11.51;60.74
61359;BME280;47228;46.762;23.598;2023-03-09T08:40:05;95798.31;;;11.53;60.80
61359;BME280;47228;46.762;23.598;2023-03-09T08:42:34;95799.02;;;11.55;60.94
61359;BME280;47228;46.762;23.598;2023-03-09T08:45:03;95793.23;;;11.59;60.97
61359;BME280;47228;46.762;23.598;2023-03-09T08:47:32;95790.14;;;11.64;60.94
61359;BME280;47228;46.762;23.598;2023-03-09T08:50:00;95791.27;;;11.71;61.09
61359;BME280;47228;46.762;23.598;2023-03-09T08:52:27;95787.71;;;11.80;61.15
61359;BME280;47228;46.762;23.598;2023-03-09T08:54:56;95793.02;;;11.90;60.72
61359;BME280;47228;46.762;23.598;2023-03-09T08:57:24;95792.16;;;11.98;60.56
61359;BME280;47228;46.762;23.598;2023-03-09T08:59:52;95789.86;;;12.06;60.68
61359;BME280;47228;46.762;23.598;2023-03-09T09:02:20;95790.00;;;12.15;59.95
61359;BME280;47228;46.762;23.598;2023-03-09T09:04:49;95784.36;;;12.28;60.49
61359;BME280;47228;46.762;23.598;2023-03-09T09:07:17;95777.84;;;12.50;60.57
61359;BME280;47228;46.762;23.598;2023-03-09T09:09:45;95784.45;;;12.72;59.42
61359;BME280;47228;46.762;23.598;2023-03-09T09:12:13;95784.73;;;12.90;58.45
61359;BME280;47228;46.762;23.598;2023-03-09T09:14:42;95788.58;;;13.00;57.86
61359;BME280;47228;46.762;23.598;2023-03-09T09:17:10;95788.86;;;13.06;57.02
61359;BME280;47228;46.762;23.598;2023-03-09T09:19:39;95791.27;;;13.08;55.82
61359;BME280;47228;46.762;23.598;2023-03-09T09:22:08;95792.13;;;13.08;55.42
61359;BME280;47228;46.762;23.598;2023-03-09T09:24:37;95791.06;;;13.09;55.46
61359;BME280;47228;46.762;23.598;2023-03-09T09:27:08;95791.73;;;13.12;55.32
61359;BME280;47228;46.762;23.598;2023-03-09T09:29:37;95790.02;;;13.18;54.84
61359;BME280;47228;46.762;23.598;2023-03-09T09:32:05;95793.02;;;13.24;54.42
61359;BME280;47228;46.762;23.598;2023-03-09T09:34:33;95793.29;;;13.24;53.93
61359;BME280;47228;46.762;23.598;2023-03-09T09:37:03;95791.48;;;13.24;53.67
61359;BME280;47228;46.762;23.598;2023-03-09T09:39:33;95790.67;;;13.23;53.00
61359;BME280;47228;46.762;23.598;2023-03-09T09:42:05;95787.09;;;13.22;53.33
61359;BME280;47228;46.762;23.598;2023-03-09T09:44:40;95788.70;;;13.22;52.79
61359;BME280;47228;46.762;23.598;2023-03-09T09:47:24;95786.90;;;13.26;52.79
61359;BME280;47228;46.762;23.598;2023-03-09T09:49:55;95798.33;;;13.40;53.77
61359;BME280;47228;46.762;23.598;2023-03-09T09:52:46;95803.59;;;13.48;52.61
61359;BME280;47228;46.762;23.598;2023-03-09T09:55:34;95806.13;;;13.43;52.50
61359;BME280;47228;46.762;23.598;2023-03-09T09:58:12;95805.22;;;13.35;52.14
61359;BME280;47228;46.762;23.598;2023-03-09T10:00:47;95808.52;;;13.21;52.28
61359;BME280;47228;46.762;23.598;2023-03-09T10:03:26;95806.23;;;13.12;52.50
61359;BME280;47228;46.762;23.598;2023-03-09T10:11:25;95791.60;;;12.98;53.42
61359;BME280;47228;46.762;23.598;2023-03-09T10:16:46;95792.33;;;13.03;54.11
61359;BME280;47228;46.762;23.598;2023-03-09T10:19:27;95795.48;;;13.07;53.87
61359;BME280;47228;46.762;23.598;2023-03-09T10:22:01;95801.52;;;13.09;53.51
61359;BME280;47228;46.762;23.598;2023-03-09T10:24:51;95803.71;;;13.10;53.65
61359;BME280;47228;46.762;23.598;2023-03-09T10:27:25;95800.15;;;13.10;53.91
61359;BME280;47228;46.762;23.598;2023-03-09T10:36:06;95798.50;;;13.02;52.81
61359;BME280;47228;46.762;23.598;2023-03-09T10:38:38;95794.33;;;13.00;53.04
61359;BME280;47228;46.762;23.598;2023-03-09T10:41:18;95791.28;;;12.98;52.91
61359;BME280;47228;46.762;23.598;2023-03-09T10:43:47;95791.42;;;12.97;52.73
61359;BME280;47228;46.762;23.598;2023-03-09T10:46:20;95786.69;;;12.97;53.05
61359;BME280;47228;46.762;23.598;2023-03-09T10:48:50;95784.88;;;12.97;53.22
61359;BME280;47228;46.762;23.598;2023-03-09T10:51:38;95779.61;;;12.98;53.33
61359;BME280;47228;46.762;23.598;2023-03-09T10:56:46;95784.15;;;12.98;53.56
61359;BME280;47228;46.762;23.598;2023-03-09T10:59:17;95778.02;;;12.97;53.52
61359;BME280;47228;46.762;23.598;2023-03-09T11:01:48;95774.55;;;12.97;53.62
61359;BME280;47228;46.762;23.598;2023-03-09T11:09:26;95765.63;;;12.95;54.05
61359;BME280;47228;46.762;23.598;2023-03-09T11:14:52;95759.96;;;12.92;54.21
61359;BME280;47228;46.762;23.598;2023-03-09T11:17:36;95762.89;;;12.91;54.19
61359;BME280;47228;46.762;23.598;2023-03-09T11:20:33;95762.02;;;12.89;53.69
61359;BME280;47228;46.762;23.598;2023-03-09T11:23:39;95759.28;;;12.86;53.60
61359;BME280;47228;46.762;23.598;2023-03-09T11:26:28;95764.59;;;12.83;53.85
61359;BME280;47228;46.762;23.598;2023-03-09T11:31:40;95761.79;;;12.77;54.37
61359;BME280;47228;46.762;23.598;2023-03-09T11:34:22;95757.84;;;12.76;54.26
61359;BME280;47228;46.762;23.598;2023-03-09T11:39:35;95743.75;;;12.81;54.56
61359;BME280;47228;46.762;23.598;2023-03-09T11:42:10;95744.84;;;12.86;54.66
61359;BME280;47228;46.762;23.598;2023-03-09T11:44:42;95737.00;;;12.92;54.56
61359;BME280;47228;46.762;23.598;2023-03-09T11:49:54;95727.50;;;13.03;54.69
61359;BME280;47228;46.762;23.598;2023-03-09T11:52:30;95733.89;;;13.11;54.51
61359;BME280;47228;46.762;23.598;2023-03-09T11:55:02;95730.39;;;13.18;54.46
61359;BME280;47228;46.762;23.598;2023-03-09T11:57:33;95726.96;;;13.24;53.75
61359;BME280;47228;46.762;23.598;2023-03-09T12:00:06;95721.04;;;13.25;53.73
61359;BME280;47228;46.762;23.598;2023-03-09T12:05:30;95716.65;;;13.33;54.29
61359;BME280;47228;46.762;23.598;2023-03-09T12:10:35;95707.21;;;13.46;53.87
61359;BME280;47228;46.762;23.598;2023-03-09T12:13:16;95704.77;;;13.52;53.42
61359;BME280;47228;46.762;23.598;2023-03-09T12:18:27;95697.29;;;13.63;53.45
61359;BME280;47228;46.762;23.598;2023-03-09T12:21:01;95692.08;;;13.68;53.67
61359;BME280;47228;46.762;23.598;2023-03-09T12:31:33;95687.08;;;13.78;53.87
61359;BME280;47228;46.762;23.598;2023-03-09T12:36:37;95694.71;;;13.78;53.27
61359;BME280;47228;46.762;23.598;2023-03-09T12:42:04;95690.41;;;13.70;53.24
61359;BME280;47228;46.762;23.598;2023-03-09T12:47:22;95694.41;;;13.61;53.11
61359;BME280;47228;46.762;23.598;2023-03-09T12:49:55;95697.71;;;13.56;53.07
61359;BME280;47228;46.762;23.598;2023-03-09T12:55:10;95700.45;;;13.48;53.51
61359;BME280;47228;46.762;23.598;2023-03-09T12:57:41;95705.80;;;13.45;54.08
61359;BME280;47228;46.762;23.598;2023-03-09T13:00:22;95702.06;;;13.41;54.92
61359;BME280;47228;46.762;23.598;2023-03-09T13:02:55;95707.11;;;13.38;54.90
61359;BME280;47228;46.762;23.598;2023-03-09T13:05:29;95715.10;;;13.33;55.28
61359;BME280;47228;46.762;23.598;2023-03-09T13:08:01;95707.78;;;13.27;55.64
61359;BME280;47228;46.762;23.598;2023-03-09T13:10:33;95709.79;;;13.23;55.65
61359;BME280;47228;46.762;23.598;2023-03-09T13:13:31;95711.27;;;13.18;55.89
61359;BME280;47228;46.762;23.598;2023-03-09T13:27:28;95712.07;;;12.95;56.70
61359;BME280;47228;46.762;23.598;2023-03-09T13:30:21;95713.27;;;12.91;56.88
61359;BME280;47228;46.762;23.598;2023-03-09T13:33:01;95717.14;;;12.87;57.19
61359;BME280;47228;46.762;23.598;2023-03-09T13:35:38;95715.84;;;12.83;57.28
61359;BME280;47228;46.762;23.598;2023-03-09T13:38:19;95713.58;;;12.80;57.16
61359;BME280;47228;46.762;23.598;2023-03-09T13:40:51;95710.63;;;12.77;57.55
61359;BME280;47228;46.762;23.598;2023-03-09T13:43:31;95708.81;;;12.74;57.63
61359;BME280;47228;46.762;23.598;2023-03-09T13:46:07;95709.06;;;12.72;57.60
61359;BME280;47228;46.762;23.598;2023-03-09T13:48:47;95713.73;;;12.70;57.67
61359;BME280;47228;46.762;23.598;2023-03-09T13:51:44;95715.42;;;12.67;58.08
61359;BME280;47228;46.762;23.598;2023-03-09T13:54:26;95713.27;;;12.64;58.55
61359;BME280;47228;46.762;23.598;2023-03-09T13:56:58;95712.42;;;12.62;59.17
61359;BME280;47228;46.762;23.598;2023-03-09T14:02:32;95720.63;;;12.55;60.48
61359;BME280;47228;46.762;23.598;2023-03-09T14:05:05;95718.58;;;12.52;61.35
61359;BME280;47228;46.762;23.598;2023-03-09T14:07:55;95723.23;;;12.46;61.39
61359;BME280;47228;46.762;23.598;2023-03-09T14:12:55;95731.69;;;12.38;62.32
61359;BME280;47228;46.762;23.598;2023-03-09T14:15:24;95735.48;;;12.33;62.79
61359;BME280;47228;46.762;23.598;2023-03-09T14:17:54;95735.77;;;12.29;63.40
61359;BME280;47228;46.762;23.598;2023-03-09T14:20:30;95737.83;;;12.26;64.40
61359;BME280;47228;46.762;23.598;2023-03-09T14:25:58;95762.02;;;12.12;66.42
61359;BME280;47228;46.762;23.598;2023-03-09T14:28:28;95769.15;;;12.01;67.64
61359;BME280;47228;46.762;23.598;2023-03-09T14:31:13;95770.55;;;11.93;68.68
61359;BME280;47228;46.762;23.598;2023-03-09T14:36:25;95776.02;;;11.67;69.95
61359;BME280;47228;46.762;23.598;2023-03-09T14:41:28;95773.13;;;11.50;71.08
61359;BME280;47228;46.762;23.598;2023-03-09T14:43:57;95774.48;;;11.43;71.62
61359;BME280;47228;46.762;23.598;2023-03-09T14:46:27;95775.92;;;11.35;71.87
61359;BME280;47228;46.762;23.598;2023-03-09T14:49:00;95774.59;;;11.29;72.34
61359;BME280;47228;46.762;23.598;2023-03-09T14:51:31;95776.28;;;11.25;73.02